Time;durP1;ratioP1;P1;durP2;ratioP2;P2;SDS_P1;SDS_P2;PMS_P1;PMS_P2;Temp;Humidity;BMP_temperature;BMP_pressure;BME280_temperature;BME280_humidity;BME280_pressure;Samples;Min_cycle;Max_cycle;Signal;HPM_P1;HPM_P2
2023/04/18 00:01:08;;;;;;;6.10;2.70;;;;;;;11.79;43.59;100943.16;108492;1254;59439;-46
2023/04/18 00:03:37;;;;;;;7.10;2.70;;;;;;;11.79;43.45;100943.31;108420;1256;57849;-46
2023/04/18 00:06:06;;;;;;;7.30;2.70;;;;;;;11.83;43.48;100942.67;108520;1254;65473;-46
2023/04/18 00:08:34;;;;;;;6.90;2.60;;;;;;;11.85;43.66;100939.93;108525;1254;62648;-46
2023/04/18 00:11:02;;;;;;;8.60;2.70;;;;;;;11.85;43.52;100940.10;108517;1257;63862;-46
2023/04/18 00:13:31;;;;;;;5.80;2.60;;;;;;;11.85;43.71;100943.27;108371;1254;59149;-46
2023/04/18 00:16:00;;;;;;;6.00;2.80;;;;;;;11.85;43.71;100942.86;108515;1258;59145;-46
2023/04/18 00:18:28;;;;;;;6.30;2.50;;;;;;;11.85;43.64;100943.91;108465;1254;65136;-46
2023/04/18 00:20:57;;;;;;;7.00;2.70;;;;;;;11.84;43.60;100945.77;108513;1254;64581;-46
2023/04/18 00:23:27;;;;;;;5.30;2.40;;;;;;;11.83;43.62;100946.38;108490;1257;67215;-46
2023/04/18 00:25:55;;;;;;;6.30;3.10;;;;;;;11.82;43.48;100944.04;108469;1254;60263;-46
2023/04/18 00:28:23;;;;;;;6.60;2.60;;;;;;;11.80;43.30;100941.65;108165;1254;59390;-46
2023/04/18 00:30:51;;;;;;;7.20;3.00;;;;;;;11.79;43.41;100940.52;104995;1254;68208;-46
2023/04/18 00:33:19;;;;;;;6.80;2.80;;;;;;;11.79;43.61;100941.58;108547;1256;62302;-46
2023/04/18 00:35:48;;;;;;;7.40;3.00;;;;;;;11.80;43.53;100939.27;108530;1258;64860;-46
2023/04/18 00:38:16;;;;;;;7.90;3.00;;;;;;;11.81;43.59;100935.99;108379;1257;58531;-46
2023/04/18 00:40:44;;;;;;;6.90;2.90;;;;;;;11.79;43.79;100936.14;108464;1254;59654;-47
2023/04/18 00:43:13;;;;;;;6.00;2.80;;;;;;;11.76;43.80;100933.58;107124;1259;68604;-46
2023/04/18 00:45:41;;;;;;;6.10;2.70;;;;;;;11.77;43.79;100933.48;108406;1254;62431;-46
2023/04/18 00:48:10;;;;;;;6.40;2.40;;;;;;;11.77;43.90;100930.65;108478;1257;64900;-46
2023/04/18 00:50:40;;;;;;;6.70;3.30;;;;;;;11.76;43.79;100926.56;108406;1259;60663;-46
2023/04/18 00:53:09;;;;;;;8.10;3.20;;;;;;;11.74;43.80;100927.18;108434;1254;60303;-46
2023/04/18 00:55:37;;;;;;;6.40;3.00;;;;;;;11.73;43.94;100928.72;108373;1254;66144;-46
2023/04/18 00:58:05;;;;;;;6.10;2.90;;;;;;;11.70;44.00;100926.23;108079;1257;62229;-46
2023/04/18 01:00:34;;;;;;;6.70;3.10;;;;;;;11.68;43.77;100926.23;108418;1254;64706;-46
2023/04/18 01:03:02;;;;;;;5.60;2.80;;;;;;;11.68;43.70;100922.91;108328;1254;59270;-46
2023/04/18 01:05:31;;;;;;;9.70;3.00;;;;;;;11.68;43.52;100924.31;108372;1259;58189;-49
2023/04/18 01:08:00;;;;;;;6.00;2.70;;;;;;;11.68;43.77;100921.81;105115;1261;66193;-46
2023/04/18 01:10:28;;;;;;;6.50;3.10;;;;;;;11.68;44.23;100923.27;108367;1254;62763;-46
2023/04/18 01:13:16;;;;;;;6.80;2.90;;;;;;;11.65;44.45;100924.17;108326;1254;64073;-47
2023/04/18 01:15:46;;;;;;;6.50;3.00;;;;;;;11.63;44.48;100924.48;108427;1254;59933;-46
2023/04/18 01:18:17;;;;;;;8.30;3.10;;;;;;;11.61;44.62;100925.16;108425;1257;58978;-46
2023/04/18 01:20:47;;;;;;;6.00;3.10;;;;;;;11.60;44.47;100925.80;108485;1254;66047;-46
2023/04/18 01:23:16;;;;;;;7.80;3.40;;;;;;;11.59;44.39;100926.90;108471;1254;63798;-46
2023/04/18 01:25:45;;;;;;;7.40;3.10;;;;;;;11.59;44.55;100925.48;108436;1254;64445;-46
2023/04/18 01:28:13;;;;;;;6.30;2.90;;;;;;;11.61;44.53;100929.07;108435;1254;59750;-46
2023/04/18 01:30:41;;;;;;;7.30;2.90;;;;;;;11.61;44.18;100930.47;108331;1254;58358;-46
2023/04/18 01:33:09;;;;;;;9.90;3.50;;;;;;;11.60;44.29;100930.71;108417;1254;65957;-46
2023/04/18 01:35:37;;;;;;;8.30;3.60;;;;;;;11.59;43.86;100928.85;108554;1257;61967;-46
2023/04/18 01:38:06;;;;;;;6.90;3.20;;;;;;;11.57;43.66;100930.04;105186;1260;64676;-45
2023/04/18 01:40:34;;;;;;;6.10;3.20;;;;;;;11.57;43.70;100929.58;104925;1259;60578;-46
2023/04/18 01:43:02;;;;;;;9.50;3.50;;;;;;;11.56;43.59;100929.12;108394;1256;60436;-47
2023/04/18 01:45:30;;;;;;;7.70;3.10;;;;;;;11.54;43.51;100927.48;108404;1259;65945;-46
2023/04/18 01:47:58;;;;;;;7.00;3.20;;;;;;;11.53;43.73;100933.36;108501;1258;70841;-46
2023/04/18 01:50:27;;;;;;;9.60;3.10;;;;;;;11.51;43.86;100927.54;108415;1257;64537;-46
2023/04/18 01:52:55;;;;;;;7.80;3.30;;;;;;;11.50;43.81;100931.45;108413;1254;59060;-46
2023/04/18 01:55:23;;;;;;;10.20;3.90;;;;;;;11.49;43.84;100929.21;108384;1257;60103;-46
2023/04/18 01:57:51;;;;;;;8.20;3.20;;;;;;;11.48;44.05;100930.88;108357;1257;68704;-46
2023/04/18 02:00:20;;;;;;;7.20;3.10;;;;;;;11.48;44.01;100932.30;108366;1254;61862;-46
2023/04/18 02:02:49;;;;;;;9.10;3.40;;;;;;;11.47;44.11;100934.66;105561;1259;64952;-46
2023/04/18 02:05:20;;;;;;;6.50;3.00;;;;;;;11.46;44.01;100930.70;108391;1259;58386;-46
2023/04/18 02:07:49;;;;;;;7.60;3.70;;;;;;;11.46;44.41;100928.77;108424;1257;60429;-46
2023/04/18 02:10:18;;;;;;;7.10;3.50;;;;;;;11.46;44.41;100930.73;108463;1254;66798;-46
2023/04/18 02:12:47;;;;;;;7.90;3.40;;;;;;;11.45;44.25;100930.96;108491;1259;63235;-46
2023/04/18 02:15:15;;;;;;;7.90;3.40;;;;;;;11.45;44.27;100926.61;108314;1259;64692;-46
2023/04/18 02:17:44;;;;;;;7.70;3.60;;;;;;;11.45;44.44;100925.36;106178;1257;60434;-48
2023/04/18 02:20:13;;;;;;;6.10;3.30;;;;;;;11.45;44.56;100926.21;108499;1259;58305;-46
2023/04/18 02:22:42;;;;;;;9.20;3.60;;;;;;;11.44;44.32;100928.56;108480;1257;66215;-46
2023/04/18 02:25:10;;;;;;;7.70;3.30;;;;;;;11.44;44.54;100927.21;108450;1254;62629;-46
2023/04/18 02:27:39;;;;;;;7.30;3.30;;;;;;;11.43;44.66;100925.67;108363;1257;65560;-46
2023/04/18 02:30:07;;;;;;;7.20;3.90;;;;;;;11.41;44.63;100928.59;108527;1260;59965;-47
2023/04/18 02:32:36;;;;;;;7.70;3.80;;;;;;;11.41;44.67;100927.55;106018;1254;60402;-46
2023/04/18 02:35:04;;;;;;;8.60;4.20;;;;;;;11.40;44.76;100924.45;108532;1254;66121;-48
2023/04/18 02:37:32;;;;;;;8.50;3.50;;;;;;;11.41;44.73;100925.14;107365;1259;62366;-46
2023/04/18 02:40:01;;;;;;;6.50;3.70;;;;;;;11.41;44.76;100925.85;108433;1258;64064;-46
2023/04/18 02:42:31;;;;;;;10.10;3.80;;;;;;;11.40;44.88;100921.16;108364;1259;59875;-46
2023/04/18 02:45:01;;;;;;;7.80;3.60;;;;;;;11.40;44.86;100922.17;108424;1256;59342;-46
2023/04/18 02:47:30;;;;;;;7.00;3.70;;;;;;;11.41;45.07;100925.30;108403;1259;68946;-46
2023/04/18 02:50:10;;;;;;;8.00;3.80;;;;;;;11.40;45.42;100925.16;107012;1259;63726;-46
2023/04/18 02:52:39;;;;;;;8.20;3.80;;;;;;;11.41;45.15;100920.38;108431;1258;64720;-46
2023/04/18 02:55:08;;;;;;;10.00;3.80;;;;;;;11.42;45.11;100925.38;108335;1260;58685;-46
2023/04/18 02:57:38;;;;;;;8.40;4.00;;;;;;;11.43;45.36;100922.89;108380;1257;60454;-46
2023/04/18 03:00:44;;;;;;;8.50;4.10;;;;;;;11.42;44.95;100917.81;107839;1261;67781;-46
2023/04/18 03:03:42;;;;;;;6.90;3.00;;;;;;;11.40;44.88;100914.98;107823;1265;62403;-47
2023/04/18 03:06:19;;;;;;;7.70;3.90;;;;;;;11.41;45.07;100917.55;108234;1254;64828;-46
2023/04/18 03:08:47;;;;;;;8.60;3.60;;;;;;;11.43;45.05;100917.09;108354;1259;59119;-46
2023/04/18 03:11:15;;;;;;;8.20;3.60;;;;;;;11.42;45.05;100920.11;108310;1254;59610;-46
2023/04/18 03:13:44;;;;;;;6.30;3.70;;;;;;;11.42;44.78;100921.52;108400;1257;66213;-46
2023/04/18 03:16:12;;;;;;;8.70;3.90;;;;;;;11.44;44.64;100918.02;108332;1254;62330;-46
2023/04/18 03:18:42;;;;;;;9.50;3.70;;;;;;;11.46;44.53;100915.94;107832;1258;65283;-46
2023/04/18 03:21:10;;;;;;;8.20;3.50;;;;;;;11.47;44.48;100922.55;108406;1254;58782;-46
2023/04/18 03:23:39;;;;;;;7.10;3.90;;;;;;;11.48;44.49;100925.66;108504;1254;59120;-46
2023/04/18 03:26:07;;;;;;;7.90;3.90;;;;;;;11.48;44.53;100922.34;108529;1256;65823;-46
2023/04/18 03:28:36;;;;;;;7.70;3.80;;;;;;;11.47;44.87;100927.64;108400;1260;63327;-46
2023/04/18 03:31:04;;;;;;;7.50;3.70;;;;;;;11.44;44.42;100930.02;108394;1254;65079;-46
2023/04/18 03:33:34;;;;;;;8.20;4.00;;;;;;;11.48;44.07;100931.83;107206;1256;59024;-46
2023/04/18 03:36:08;;;;;;;8.60;3.70;;;;;;;11.50;44.02;100937.98;108508;1254;58297;-46
2023/04/18 03:38:39;;;;;;;6.70;4.00;;;;;;;11.48;44.21;100938.82;108350;1257;64907;-46
2023/04/18 03:41:08;;;;;;;7.00;3.90;;;;;;;11.47;44.30;100937.50;108355;1255;64919;-46
2023/04/18 03:43:38;;;;;;;6.90;3.90;;;;;;;11.47;44.60;100936.39;108382;1260;64041;-46
2023/04/18 03:46:06;;;;;;;7.40;3.70;;;;;;;11.48;44.72;100934.60;108424;1255;60072;-46
2023/04/18 03:48:36;;;;;;;7.10;4.00;;;;;;;11.48;44.72;100924.55;107379;1256;58987;-46
2023/04/18 03:51:09;;;;;;;8.60;4.00;;;;;;;11.50;44.30;100928.31;104937;1258;66096;-46
2023/04/18 03:53:37;;;;;;;8.30;3.90;;;;;;;11.51;44.27;100926.27;105050;1261;62861;-45
2023/04/18 03:56:05;;;;;;;10.10;4.10;;;;;;;11.51;44.32;100929.43;104921;1262;64876;-47
2023/04/18 03:58:48;;;;;;;8.90;4.30;;;;;;;11.52;44.45;100931.70;104998;1255;60421;-47
2023/04/18 04:01:16;;;;;;;9.10;4.10;;;;;;;11.52;44.36;100928.36;104876;1260;60364;-48
2023/04/18 04:03:45;;;;;;;8.30;4.50;;;;;;;11.51;44.27;100928.55;104964;1260;66687;-47
2023/04/18 04:06:14;;;;;;;8.80;4.20;;;;;;;11.50;44.10;100926.20;104862;1260;62975;-45
2023/04/18 04:08:44;;;;;;;7.90;4.20;;;;;;;11.48;44.07;100920.55;104928;1260;65064;-45
2023/04/18 04:11:13;;;;;;;8.20;4.40;;;;;;;11.47;44.30;100924.86;108432;1254;59823;-46
2023/04/18 04:13:41;;;;;;;8.00;4.20;;;;;;;11.46;44.47;100928.72;108322;1255;60118;-45
2023/04/18 04:16:09;;;;;;;8.70;3.70;;;;;;;11.47;44.43;100918.31;108399;1254;65883;-46
2023/04/18 04:18:38;;;;;;;6.90;3.80;;;;;;;11.49;44.65;100909.38;108395;1260;62417;-47
2023/04/18 04:21:06;;;;;;;8.20;4.00;;;;;;;11.50;44.96;100924.41;108398;1254;68320;-47
2023/04/18 04:23:45;;;;;;;8.40;4.50;;;;;;;11.51;44.79;100923.32;108460;1255;59634;-46
2023/04/18 04:26:22;;;;;;;10.90;4.60;;;;;;;11.51;44.78;100927.85;105471;1254;60440;-45
2023/04/18 04:28:58;;;;;;;8.80;4.30;;;;;;;11.52;44.83;100933.02;105104;1254;66528;-46
2023/04/18 04:31:28;;;;;;;8.10;3.90;;;;;;;11.52;44.77;100933.73;104892;1254;63222;-44
2023/04/18 04:33:56;;;;;;;8.70;4.70;;;;;;;11.53;44.74;100924.72;105051;1260;66199;-47
2023/04/18 04:36:26;;;;;;;9.40;4.20;;;;;;;11.53;44.64;100931.23;105962;1257;61450;-45
2023/04/18 04:38:55;;;;;;;8.30;3.90;;;;;;;11.53;45.10;100939.10;108499;1254;58904;-46
2023/04/18 04:41:30;;;;;;;7.40;4.20;;;;;;;11.55;45.17;100943.08;108379;1257;67956;-45
2023/04/18 04:44:00;;;;;;;8.60;4.40;;;;;;;11.55;45.11;100944.64;108450;1254;61622;-46
2023/04/18 04:46:32;;;;;;;7.80;4.20;;;;;;;11.56;44.98;100942.27;108466;1258;65550;-46
2023/04/18 04:49:03;;;;;;;7.70;4.50;;;;;;;11.55;44.89;100940.41;108463;1253;60002;-46
2023/04/18 04:51:32;;;;;;;7.50;4.20;;;;;;;11.54;44.87;100939.80;108450;1254;59324;-47
2023/04/18 04:54:00;;;;;;;13.20;5.20;;;;;;;11.55;45.07;100942.34;108423;1257;66215;-46
2023/04/18 04:56:29;;;;;;;7.60;4.20;;;;;;;11.56;44.76;100947.02;108332;1254;62390;-46
2023/04/18 04:58:57;;;;;;;9.00;5.00;;;;;;;11.56;44.86;100951.56;108405;1254;64951;-46
2023/04/18 05:01:36;;;;;;;10.00;5.20;;;;;;;11.58;44.91;100948.25;108424;1254;59295;-47
2023/04/18 05:04:04;;;;;;;9.40;5.20;;;;;;;11.59;44.98;100950.66;108466;1254;60885;-46
2023/04/18 05:06:33;;;;;;;9.60;5.30;;;;;;;11.57;45.19;100955.16;108396;1255;66198;-46
2023/04/18 05:09:01;;;;;;;11.30;6.10;;;;;;;11.57;44.86;100954.51;108460;1257;62765;-46
2023/04/18 05:11:30;;;;;;;9.90;4.80;;;;;;;11.56;45.27;100954.56;108422;1259;73583;-47
2023/04/18 05:13:58;;;;;;;11.70;5.20;;;;;;;11.56;45.21;100956.64;108400;1254;60325;-46
2023/04/18 05:16:26;;;;;;;8.90;4.60;;;;;;;11.58;45.07;100957.91;108470;1254;59667;-47
2023/04/18 05:18:54;;;;;;;10.50;5.10;;;;;;;11.63;44.84;100960.40;108400;1254;66410;-47
2023/04/18 05:21:24;;;;;;;9.80;4.80;;;;;;;11.67;44.96;100957.58;108517;1254;62620;-46
2023/04/18 05:23:53;;;;;;;9.50;4.90;;;;;;;11.73;45.04;100957.85;108470;1257;64989;-46
2023/04/18 05:26:21;;;;;;;8.60;4.00;;;;;;;11.78;45.00;100959.96;108387;1259;60190;-46
2023/04/18 05:28:49;;;;;;;9.50;4.90;;;;;;;11.83;45.56;100959.42;108464;1260;59080;-46
2023/04/18 05:31:17;;;;;;;11.40;5.00;;;;;;;11.86;45.57;100963.19;108450;1257;65894;-46
2023/04/18 05:33:45;;;;;;;11.60;4.90;;;;;;;11.89;45.47;100967.89;107130;1254;64318;-46
2023/04/18 05:36:13;;;;;;;9.90;4.80;;;;;;;11.92;45.31;100967.55;104910;1260;65704;-46
2023/04/18 05:38:42;;;;;;;10.30;5.30;;;;;;;11.95;45.52;100966.23;108450;1254;59452;-46
2023/04/18 05:41:10;;;;;;;8.80;5.10;;;;;;;12.00;45.42;100966.56;108528;1258;59291;-46
2023/04/18 05:43:38;;;;;;;7.40;4.30;;;;;;;12.06;45.22;100965.02;106543;1254;66152;-45
2023/04/18 05:46:07;;;;;;;8.50;3.90;;;;;;;12.11;45.02;100965.87;104985;1260;62347;-46
2023/04/18 05:48:36;;;;;;;7.60;3.60;;;;;;;12.16;44.76;100966.21;104982;1254;64493;-45
2023/04/18 05:51:04;;;;;;;8.60;4.20;;;;;;;12.19;44.44;100964.56;108443;1260;60378;-46
2023/04/18 05:53:33;;;;;;;8.40;4.50;;;;;;;12.23;44.53;100964.65;108474;1254;58563;-46
2023/04/18 05:56:01;;;;;;;10.20;4.80;;;;;;;12.27;44.32;100965.66;108530;1254;65866;-46
2023/04/18 05:58:29;;;;;;;9.70;4.30;;;;;;;12.33;44.48;100964.52;108460;1260;64903;-47
2023/04/18 06:00:57;;;;;;;10.40;4.60;;;;;;;12.41;44.56;100961.30;108377;1258;63983;-46
2023/04/18 06:03:25;;;;;;;9.50;4.10;;;;;;;12.47;44.61;100961.52;106809;1254;60562;-47
2023/04/18 06:05:54;;;;;;;10.60;4.50;;;;;;;12.51;44.38;100959.47;108479;1254;58977;-46
2023/04/18 06:08:23;;;;;;;8.70;4.60;;;;;;;12.55;44.47;100961.02;108479;1254;66819;-46
2023/04/18 06:10:51;;;;;;;7.70;3.60;;;;;;;12.60;44.56;100958.88;108457;1254;72433;-46
2023/04/18 06:13:19;;;;;;;8.20;4.10;;;;;;;12.68;44.24;100959.91;108497;1260;63684;-46
2023/04/18 06:15:47;;;;;;;9.40;3.40;;;;;;;12.75;44.32;100961.92;108421;1254;60637;-46
2023/04/18 06:18:15;;;;;;;11.60;4.10;;;;;;;12.85;44.38;100965.23;108505;1253;60014;-46
2023/04/18 06:20:44;;;;;;;7.60;3.90;;;;;;;12.92;44.25;100964.83;108453;1254;67036;-46
2023/04/18 06:23:12;;;;;;;8.40;4.20;;;;;;;12.98;44.13;100962.72;104515;1257;63144;-45
2023/04/18 06:25:41;;;;;;;8.90;4.10;;;;;;;13.05;44.09;100961.14;108411;1255;64786;-45
2023/04/18 06:28:09;;;;;;;9.70;4.10;;;;;;;13.14;43.96;100958.62;108452;1254;61166;-45
2023/04/18 06:30:37;;;;;;;9.10;3.60;;;;;;;13.22;43.91;100961.67;108373;1254;61139;-45
2023/04/18 06:33:10;;;;;;;7.00;3.80;;;;;;;13.31;43.83;100963.27;104831;1255;65455;-45
2023/04/18 06:35:38;;;;;;;8.90;3.90;;;;;;;13.39;43.43;100964.54;108610;1254;64050;-45
2023/04/18 06:38:06;;;;;;;6.90;3.50;;;;;;;13.46;43.28;100966.23;105822;1260;66296;-45
2023/04/18 06:40:35;;;;;;;7.00;3.70;;;;;;;13.53;43.24;100967.04;104372;1254;60437;-46
2023/04/18 06:43:06;;;;;;;11.90;4.20;;;;;;;13.61;43.35;100966.23;105051;1254;61209;-47
2023/04/18 06:45:35;;;;;;;7.40;3.30;;;;;;;13.68;43.43;100966.52;108404;1254;66439;-49
2023/04/18 06:48:03;;;;;;;8.60;3.60;;;;;;;13.74;43.51;100964.79;108362;1258;63257;-47
2023/04/18 06:50:31;;;;;;;8.60;3.60;;;;;;;13.81;43.58;100964.61;108438;1254;65150;-47
2023/04/18 06:52:59;;;;;;;7.20;3.20;;;;;;;13.86;43.37;100964.30;108420;1254;59115;-47
2023/04/18 06:55:28;;;;;;;6.20;3.70;;;;;;;13.91;43.17;100962.34;108434;1254;59189;-48
2023/04/18 06:57:56;;;;;;;7.90;3.80;;;;;;;13.97;42.94;100966.91;108489;1256;64946;-47
2023/04/18 07:00:25;;;;;;;7.50;3.40;;;;;;;14.04;42.87;100968.48;108465;1255;63859;-47
2023/04/18 07:02:53;;;;;;;8.20;4.00;;;;;;;14.08;42.88;100967.24;108429;1254;64809;-47
2023/04/18 07:05:21;;;;;;;6.80;3.00;;;;;;;14.15;43.04;100967.16;108394;1254;59925;-47
2023/04/18 07:07:50;;;;;;;6.70;2.80;;;;;;;14.25;42.82;100965.06;108420;1254;59149;-47
2023/04/18 07:10:19;;;;;;;8.40;3.20;;;;;;;14.32;42.68;100965.33;108493;1254;65143;-47
2023/04/18 07:12:47;;;;;;;7.30;3.30;;;;;;;14.40;42.79;100966.64;108445;1254;62431;-47
2023/04/18 07:15:15;;;;;;;9.40;3.70;;;;;;;14.45;42.55;100966.45;108444;1254;65635;-47
2023/04/18 07:17:43;;;;;;;8.10;3.30;;;;;;;14.52;42.25;100964.48;108390;1254;59019;-50
2023/04/18 07:20:11;;;;;;;8.80;3.60;;;;;;;14.60;42.20;100960.11;108399;1254;59217;-47
2023/04/18 07:22:41;;;;;;;9.30;3.30;;;;;;;14.69;41.78;100960.02;108498;1254;66070;-46
2023/04/18 07:25:09;;;;;;;8.00;3.30;;;;;;;14.79;42.01;100957.92;108382;1254;62292;-47
2023/04/18 07:27:38;;;;;;;7.90;3.30;;;;;;;14.90;41.82;100957.10;108448;1254;63698;-47
2023/04/18 07:30:06;;;;;;;6.20;3.40;;;;;;;15.00;41.55;100957.15;108550;1256;60109;-48
2023/04/18 07:32:35;;;;;;;9.50;3.50;;;;;;;15.09;41.60;100954.36;108627;1254;58892;-47
2023/04/18 07:35:04;;;;;;;9.60;3.10;;;;;;;15.18;41.21;100951.94;108539;1254;66336;-47
2023/04/18 07:37:32;;;;;;;10.20;3.50;;;;;;;15.26;40.84;100948.27;108513;1259;63436;-47
2023/04/18 07:40:00;;;;;;;7.90;3.60;;;;;;;15.32;40.74;100949.15;108404;1254;64675;-47
2023/04/18 07:42:28;;;;;;;8.20;3.10;;;;;;;15.38;40.63;100948.23;108379;1254;58922;-47
2023/04/18 07:44:57;;;;;;;7.90;3.30;;;;;;;15.42;40.89;100944.98;108422;1254;60163;-47
2023/04/18 07:47:26;;;;;;;12.30;3.50;;;;;;;15.46;40.76;100942.73;108507;1254;65022;-46
2023/04/18 07:49:56;;;;;;;7.50;3.30;;;;;;;15.49;40.71;100939.60;108445;1254;64587;-47
2023/04/18 07:52:25;;;;;;;11.80;3.50;;;;;;;15.51;40.34;100941.95;108425;1257;63764;-47
2023/04/18 07:54:53;;;;;;;11.10;3.50;;;;;;;15.50;39.92;100941.63;108352;1254;59215;-47
2023/04/18 07:57:22;;;;;;;10.20;2.90;;;;;;;15.48;40.01;100941.08;108456;1254;59262;-47
2023/04/18 07:59:52;;;;;;;11.50;3.70;;;;;;;15.49;40.22;100944.90;108438;1254;66193;-47
2023/04/18 08:02:20;;;;;;;8.00;2.80;;;;;;;15.49;40.00;100939.65;108456;1254;63405;-47
2023/04/18 08:04:50;;;;;;;10.50;3.50;;;;;;;15.41;40.20;100934.80;108432;1257;66352;-47
2023/04/18 08:07:19;;;;;;;6.40;2.90;;;;;;;15.38;40.22;100934.80;108410;1254;59101;-47
2023/04/18 08:09:47;;;;;;;12.40;3.50;;;;;;;15.38;40.26;100933.15;108459;1257;60211;-47
2023/04/18 08:12:15;;;;;;;8.90;3.40;;;;;;;15.41;40.04;100936.09;108453;1254;64984;-47
2023/04/18 08:14:43;;;;;;;8.90;3.20;;;;;;;15.46;40.27;100936.34;108451;1257;61696;-46
2023/04/18 08:17:11;;;;;;;9.80;3.20;;;;;;;15.54;40.29;100934.54;108511;1254;65015;-46
2023/04/18 08:19:39;;;;;;;11.90;3.50;;;;;;;15.63;40.12;100935.16;105422;1254;369370;-45
2023/04/18 08:33:51;;;;;;;6.20;2.90;;;;;;;15.94;39.37;100928.34;102716;1289;606813;-45
2023/04/18 08:36:20;;;;;;;7.70;2.80;;;;;;;16.37;38.44;100928.09;104027;1273;87928;-47
2023/04/18 08:38:48;;;;;;;9.60;3.20;;;;;;;16.33;38.33;100923.46;104189;1266;59278;-47
2023/04/18 08:41:16;;;;;;;10.20;3.00;;;;;;;16.31;38.20;100921.91;104163;1269;64770;-45
2023/04/18 08:43:47;;;;;;;6.40;2.70;;;;;;;16.32;38.53;100920.34;104161;1272;62369;-46
2023/04/18 08:46:15;;;;;;;7.80;3.00;;;;;;;16.34;38.48;100920.70;107749;1266;64997;-47
2023/04/18 08:48:44;;;;;;;5.60;2.70;;;;;;;16.38;38.33;100918.93;107605;1266;58780;-48
2023/04/18 08:51:12;;;;;;;6.30;2.70;;;;;;;16.44;38.52;100919.10;107510;1270;58973;-47
2023/04/18 08:53:40;;;;;;;8.40;3.60;;;;;;;16.51;38.51;100916.77;107753;1266;64287;-48
2023/04/18 08:56:09;;;;;;;6.30;3.00;;;;;;;16.58;38.52;100918.44;107650;1272;61633;-46
2023/04/18 08:58:37;;;;;;;6.40;3.20;;;;;;;16.60;38.11;100914.31;106405;1266;64036;-46
2023/04/18 09:01:06;;;;;;;10.80;4.00;;;;;;;16.53;38.51;100911.67;107683;1266;59786;-45
2023/04/18 09:03:39;;;;;;;6.90;2.90;;;;;;;16.44;38.94;100915.52;107719;1266;57982;-45
2023/04/18 09:06:12;;;;;;;5.20;2.10;;;;;;;16.35;38.81;100916.35;107683;1269;66659;-46
2023/04/18 09:08:42;;;;;;;5.30;1.80;;;;;;;16.32;38.11;100915.75;107989;1260;62705;-46
2023/04/18 09:11:21;;;;;;;7.70;2.30;;;;;;;16.39;37.39;100912.45;108012;1265;64716;-45
2023/04/18 09:13:50;;;;;;;4.70;2.00;;;;;;;16.46;37.49;100907.82;107987;1263;60860;-45
2023/04/18 09:16:21;;;;;;;7.60;2.10;;;;;;;16.51;37.85;100905.58;107994;1265;58801;-46
2023/04/18 09:19:16;;;;;;;6.60;2.30;;;;;;;16.58;38.04;100904.48;108040;1264;64073;-47
2023/04/18 09:21:47;;;;;;;9.10;2.20;;;;;;;16.64;38.13;100905.32;107999;1260;62732;-46
2023/04/18 09:24:21;;;;;;;9.00;2.20;;;;;;;16.66;37.77;100907.50;107968;1260;64758;-46
2023/04/18 09:26:50;;;;;;;6.50;1.90;;;;;;;16.63;37.17;100907.30;107977;1260;58080;-46
2023/04/18 09:29:21;;;;;;;10.60;2.40;;;;;;;16.47;36.36;100908.88;107940;1263;57692;-46
2023/04/18 09:32:02;;;;;;;5.80;2.30;;;;;;;16.24;36.75;100913.02;107945;1260;65271;-46
2023/04/18 09:34:32;;;;;;;6.70;2.70;;;;;;;16.06;37.11;100912.09;108044;1263;62216;-46
2023/04/18 09:37:08;;;;;;;9.40;2.40;;;;;;;15.97;37.88;100908.16;108054;1261;65582;-46
2023/04/18 09:39:38;;;;;;;6.50;2.00;;;;;;;15.89;38.22;100904.67;108033;1261;59325;-46
2023/04/18 09:42:07;;;;;;;7.20;2.40;;;;;;;15.78;38.20;100902.83;107411;1263;59606;-46
2023/04/18 09:44:36;;;;;;;6.70;1.80;;;;;;;15.68;38.51;100903.23;107888;1264;64940;-46
2023/04/18 09:47:05;;;;;;;7.40;2.30;;;;;;;15.65;38.99;100901.38;108013;1263;61770;-46
2023/04/18 09:49:34;;;;;;;5.80;2.40;;;;;;;15.61;38.78;100899.20;107934;1264;63850;-46
2023/04/18 09:52:02;;;;;;;8.30;2.60;;;;;;;15.60;39.10;100898.05;107976;1267;58154;-46
2023/04/18 09:54:30;;;;;;;9.20;2.60;;;;;;;15.60;39.00;100898.75;108047;1262;59362;-46
2023/04/18 09:56:58;;;;;;;5.80;2.50;;;;;;;15.61;38.78;100896.05;107774;1263;65137;-46
2023/04/18 09:59:53;;;;;;;11.40;2.30;;;;;;;15.61;38.63;100894.46;107965;1263;61664;-46
2023/04/18 10:02:22;;;;;;;6.50;2.60;;;;;;;15.59;37.70;100894.14;107946;1263;64201;-46
2023/04/18 10:04:50;;;;;;;7.80;2.60;;;;;;;15.55;37.56;100897.66;108011;1262;59779;-46
2023/04/18 10:07:18;;;;;;;11.70;2.60;;;;;;;15.54;37.66;100893.56;107913;1261;60764;-46
2023/04/18 10:09:48;;;;;;;8.90;3.00;;;;;;;15.54;37.98;100894.03;107985;1263;64384;-46
2023/04/18 10:12:16;;;;;;;10.80;2.50;;;;;;;15.56;38.06;100897.94;107977;1265;61457;-46
2023/04/18 10:14:44;;;;;;;9.30;2.70;;;;;;;15.58;37.70;100894.08;107923;1263;63921;-46
2023/04/18 10:17:13;;;;;;;8.10;2.60;;;;;;;15.57;37.53;100891.98;107877;1261;59634;-46
2023/04/18 10:19:43;;;;;;;8.10;2.20;;;;;;;15.57;37.59;100895.70;106542;1264;60813;-46
2023/04/18 10:22:11;;;;;;;10.30;2.60;;;;;;;15.55;37.63;100897.86;104344;1265;65069;-46
2023/04/18 10:24:51;;;;;;;7.80;2.40;;;;;;;15.52;37.94;100898.27;104460;1266;70918;-45
2023/04/18 10:27:59;;;;;;;17.00;2.60;;;;;;;15.52;38.20;100898.16;106969;1260;66160;-46
2023/04/18 10:30:37;;;;;;;8.40;2.60;;;;;;;15.49;38.31;100900.90;104516;1266;62971;-46
2023/04/18 10:33:21;;;;;;;8.80;2.20;;;;;;;15.47;38.68;100899.19;107997;1263;59435;-46
2023/04/18 10:36:07;;;;;;;9.00;2.40;;;;;;;15.48;38.87;100897.78;108084;1263;64464;-47
2023/04/18 10:38:43;;;;;;;11.80;2.50;;;;;;;15.50;39.28;100903.28;108163;1263;62630;-47
2023/04/18 10:41:29;;;;;;;11.30;3.10;;;;;;;15.50;39.17;100901.13;108044;1263;65086;-47
2023/04/18 10:44:09;;;;;;;9.90;2.60;;;;;;;15.54;39.29;100904.20;108016;1262;59525;-46
2023/04/18 10:46:41;;;;;;;9.40;2.60;;;;;;;15.58;39.43;100904.07;107980;1261;59771;-47
2023/04/18 10:49:19;;;;;;;9.50;2.90;;;;;;;15.63;38.98;100906.30;108044;1264;64599;-47
2023/04/18 10:51:51;;;;;;;10.20;2.50;;;;;;;15.65;38.75;100908.77;107979;1263;62469;-47
2023/04/18 10:54:21;;;;;;;9.30;2.70;;;;;;;15.64;38.80;100908.70;108419;1257;64977;-46
2023/04/18 10:56:57;;;;;;;10.00;3.00;;;;;;;15.64;38.85;100909.39;108416;1257;58037;-47
2023/04/18 10:59:25;;;;;;;9.40;2.60;;;;;;;15.64;39.11;100914.00;108464;1259;59277;-47
2023/04/18 11:02:09;;;;;;;14.60;2.60;;;;;;;15.62;39.30;100913.67;108211;1257;65199;-47
2023/04/18 11:04:38;;;;;;;11.00;2.80;;;;;;;15.57;39.56;100915.33;108403;1257;64437;-47
2023/04/18 11:07:06;;;;;;;10.50;3.00;;;;;;;15.50;39.37;100921.82;108278;1257;63724;-47
2023/04/18 11:09:34;;;;;;;8.10;2.20;;;;;;;15.39;39.78;100922.30;107091;1259;60210;-46
2023/04/18 11:12:03;;;;;;;8.00;3.20;;;;;;;15.28;40.45;100929.00;104914;1257;59924;-46
2023/04/18 11:14:41;;;;;;;7.40;2.70;;;;;;;15.15;41.03;100925.58;108314;1260;65055;-47
2023/04/18 11:17:26;;;;;;;8.10;1.90;;;;;;;15.02;41.20;100935.00;105598;1257;62422;-47
2023/04/18 11:19:59;;;;;;;7.00;2.20;;;;;;;14.87;41.88;100938.73;108363;1259;65058;-46
2023/04/18 11:22:28;;;;;;;5.80;2.20;;;;;;;14.72;42.57;100935.98;108487;1259;59316;-46
2023/04/18 11:25:00;;;;;;;8.10;2.40;;;;;;;14.58;43.16;100935.52;108390;1257;58295;-46
2023/04/18 11:27:28;;;;;;;10.30;3.10;;;;;;;14.47;44.98;100934.23;108439;1255;64331;-46
2023/04/18 11:29:56;;;;;;;9.40;2.70;;;;;;;14.34;46.89;100930.11;108400;1256;62583;-46
2023/04/18 11:32:24;;;;;;;6.70;2.90;;;;;;;14.20;48.39;100929.34;108357;1256;64892;-46
2023/04/18 11:34:53;;;;;;;6.80;2.70;;;;;;;14.06;49.82;100930.88;108503;1254;59759;-47
2023/04/18 11:37:21;;;;;;;9.50;3.20;;;;;;;13.94;51.10;100932.45;106251;1254;59745;-47
2023/04/18 11:39:51;;;;;;;11.40;3.30;;;;;;;13.83;52.03;100933.21;108430;1254;65177;-47
2023/04/18 11:42:20;;;;;;;10.30;3.30;;;;;;;13.74;52.78;100932.90;108469;1254;62135;-48